sensor_id;sensor_type;location;lat;lon;timestamp;temperature;humidity
10512;DHT22;5304;48.604;2.096;2022-12-18T00:00:23;-3.40;99.90
10512;DHT22;5304;48.604;2.096;2022-12-18T00:03:08;-3.40;99.90
10512;DHT22;5304;48.604;2.096;2022-12-18T00:05:52;-3.40;99.90
10512;DHT22;5304;48.604;2.096;2022-12-18T00:08:38;-3.50;99.90
10512;DHT22;5304;48.604;2.096;2022-12-18T00:11:25;-3.40;99.90
10512;DHT22;5304;48.604;2.096;2022-12-18T00:14:13;-3.40;99.90
10512;DHT22;5304;48.604;2.096;2022-12-18T00:16:58;-3.40;99.90
10512;DHT22;5304;48.604;2.096;2022-12-18T00:19:44;-3.40;99.90
10512;DHT22;5304;48.604;2.096;2022-12-18T00:22:29;-3.50;99.90
10512;DHT22;5304;48.604;2.096;2022-12-18T00:25:13;-3.50;99.90
10512;DHT22;5304;48.604;2.096;2022-12-18T00:27:57;-3.50;99.90
10512;DHT22;5304;48.604;2.096;2022-12-18T00:30:43;-3.50;99.90
10512;DHT22;5304;48.604;2.096;2022-12-18T00:33:28;-3.50;99.90
10512;DHT22;5304;48.604;2.096;2022-12-18T00:36:19;-3.50;99.90
10512;DHT22;5304;48.604;2.096;2022-12-18T00:39:04;-3.50;99.90
10512;DHT22;5304;48.604;2.096;2022-12-18T00:41:49;-3.40;99.90
10512;DHT22;5304;48.604;2.096;2022-12-18T00:44:52;-3.50;99.90
10512;DHT22;5304;48.604;2.096;2022-12-18T00:47:37;-3.50;99.90
10512;DHT22;5304;48.604;2.096;2022-12-18T00:50:22;-3.50;99.90
10512;DHT22;5304;48.604;2.096;2022-12-18T00:53:10;-3.50;99.90
10512;DHT22;5304;48.604;2.096;2022-12-18T00:55:54;-3.50;99.90
10512;DHT22;5304;48.604;2.096;2022-12-18T00:58:39;-3.50;99.90
10512;DHT22;5304;48.604;2.096;2022-12-18T01:01:24;-3.50;99.90
10512;DHT22;5304;48.604;2.096;2022-12-18T01:04:08;-3.50;99.90
10512;DHT22;5304;48.604;2.096;2022-12-18T01:06:53;-3.60;99.90
10512;DHT22;5304;48.604;2.096;2022-12-18T01:09:37;-3.60;99.90
10512;DHT22;5304;48.604;2.096;2022-12-18T01:12:22;-3.60;99.90
10512;DHT22;5304;48.604;2.096;2022-12-18T01:15:07;-3.60;99.90
10512;DHT22;5304;48.604;2.096;2022-12-18T01:17:52;-3.50;99.90
10512;DHT22;5304;48.604;2.096;2022-12-18T01:20:37;-3.50;99.90
10512;DHT22;5304;48.604;2.096;2022-12-18T01:23:22;-3.50;99.90
10512;DHT22;5304;48.604;2.096;2022-12-18T01:26:10;-3.60;99.90
10512;DHT22;5304;48.604;2.096;2022-12-18T01:28:56;-3.60;99.90
10512;DHT22;5304;48.604;2.096;2022-12-18T01:31:41;-3.60;99.90
10512;DHT22;5304;48.604;2.096;2022-12-18T01:34:25;-3.60;99.90
10512;DHT22;5304;48.604;2.096;2022-12-18T01:37:09;-3.60;99.90
10512;DHT22;5304;48.604;2.096;2022-12-18T01:39:54;-3.70;99.90
10512;DHT22;5304;48.604;2.096;2022-12-18T01:42:39;-3.70;99.90
10512;DHT22;5304;48.604;2.096;2022-12-18T01:45:28;-3.70;99.90
10512;DHT22;5304;48.604;2.096;2022-12-18T01:48:13;-3.70;99.90
10512;DHT22;5304;48.604;2.096;2022-12-18T01:50:57;-3.70;99.90
10512;DHT22;5304;48.604;2.096;2022-12-18T01:53:43;-3.80;99.90
10512;DHT22;5304;48.604;2.096;2022-12-18T01:56:28;-3.80;99.90
10512;DHT22;5304;48.604;2.096;2022-12-18T01:59:13;-3.80;99.90
10512;DHT22;5304;48.604;2.096;2022-12-18T02:01:59;-3.80;99.90
10512;DHT22;5304;48.604;2.096;2022-12-18T02:04:44;-3.90;99.90
10512;DHT22;5304;48.604;2.096;2022-12-18T02:10:19;-4.00;99.90
10512;DHT22;5304;48.604;2.096;2022-12-18T02:13:41;-4.00;99.90
10512;DHT22;5304;48.604;2.096;2022-12-18T02:28:58;-4.10;99.90
10512;DHT22;5304;48.604;2.096;2022-12-18T02:31:53;-4.10;99.90
10512;DHT22;5304;48.604;2.096;2022-12-18T02:34:39;-4.10;99.90
10512;DHT22;5304;48.604;2.096;2022-12-18T02:37:25;-4.10;99.90
10512;DHT22;5304;48.604;2.096;2022-12-18T02:40:13;-4.20;99.90
10512;DHT22;5304;48.604;2.096;2022-12-18T02:43:10;-4.20;99.90
10512;DHT22;5304;48.604;2.096;2022-12-18T02:45:57;-4.10;99.90
10512;DHT22;5304;48.604;2.096;2022-12-18T02:48:42;-4.20;99.90
10512;DHT22;5304;48.604;2.096;2022-12-18T02:51:52;-4.20;99.90
10512;DHT22;5304;48.604;2.096;2022-12-18T03:04:19;-4.40;99.90
10512;DHT22;5304;48.604;2.096;2022-12-18T03:06:59;-4.40;99.90
10512;DHT22;5304;48.604;2.096;2022-12-18T03:09:49;-4.50;99.90
10512;DHT22;5304;48.604;2.096;2022-12-18T03:12:42;-4.40;99.90
10512;DHT22;5304;48.604;2.096;2022-12-18T03:15:35;-4.40;99.90
10512;DHT22;5304;48.604;2.096;2022-12-18T03:18:35;-4.50;99.90
10512;DHT22;5304;48.604;2.096;2022-12-18T03:21:28;-4.50;99.90
10512;DHT22;5304;48.604;2.096;2022-12-18T03:24:14;-4.60;99.90
10512;DHT22;5304;48.604;2.096;2022-12-18T03:27:02;-4.50;99.90
10512;DHT22;5304;48.604;2.096;2022-12-18T03:30:00;-4.50;99.90
10512;DHT22;5304;48.604;2.096;2022-12-18T03:33:17;-4.50;99.90
10512;DHT22;5304;48.604;2.096;2022-12-18T03:36:04;-4.50;99.90
10512;DHT22;5304;48.604;2.096;2022-12-18T03:38:48;-4.60;99.90
10512;DHT22;5304;48.604;2.096;2022-12-18T03:41:45;-4.60;99.90
10512;DHT22;5304;48.604;2.096;2022-12-18T03:44:54;-4.70;99.90
10512;DHT22;5304;48.604;2.096;2022-12-18T03:48:15;-4.70;99.90
10512;DHT22;5304;48.604;2.096;2022-12-18T03:50:59;-4.70;99.90
10512;DHT22;5304;48.604;2.096;2022-12-18T03:53:57;-4.70;99.90
10512;DHT22;5304;48.604;2.096;2022-12-18T03:56:46;-4.70;99.90
10512;DHT22;5304;48.604;2.096;2022-12-18T03:59:33;-4.80;99.90
10512;DHT22;5304;48.604;2.096;2022-12-18T04:02:18;-4.80;99.90
10512;DHT22;5304;48.604;2.096;2022-12-18T04:05:04;-4.80;99.90
10512;DHT22;5304;48.604;2.096;2022-12-18T04:07:51;-4.80;99.90
10512;DHT22;5304;48.604;2.096;2022-12-18T04:10:37;-4.80;99.90
10512;DHT22;5304;48.604;2.096;2022-12-18T04:13:28;-4.80;99.90
10512;DHT22;5304;48.604;2.096;2022-12-18T04:16:13;-4.80;99.90
10512;DHT22;5304;48.604;2.096;2022-12-18T04:18:58;-4.70;99.90
10512;DHT22;5304;48.604;2.096;2022-12-18T04:21:42;-4.80;99.90
10512;DHT22;5304;48.604;2.096;2022-12-18T04:24:27;-4.80;99.90
10512;DHT22;5304;48.604;2.096;2022-12-18T04:27:12;-4.80;99.90
10512;DHT22;5304;48.604;2.096;2022-12-18T04:29:56;-4.80;99.90
10512;DHT22;5304;48.604;2.096;2022-12-18T04:32:40;-4.80;99.90
10512;DHT22;5304;48.604;2.096;2022-12-18T04:35:25;-4.80;99.90
10512;DHT22;5304;48.604;2.096;2022-12-18T04:38:10;-4.80;99.90
10512;DHT22;5304;48.604;2.096;2022-12-18T04:40:54;-4.80;99.90
10512;DHT22;5304;48.604;2.096;2022-12-18T04:43:39;-4.70;99.90
10512;DHT22;5304;48.604;2.096;2022-12-18T04:46:23;-4.70;99.90
10512;DHT22;5304;48.604;2.096;2022-12-18T04:49:08;-4.70;99.90
10512;DHT22;5304;48.604;2.096;2022-12-18T04:51:54;-4.70;99.90
10512;DHT22;5304;48.604;2.096;2022-12-18T04:54:39;-4.80;99.90
10512;DHT22;5304;48.604;2.096;2022-12-18T04:57:23;-4.80;99.90
10512;DHT22;5304;48.604;2.096;2022-12-18T05:00:08;-4.90;99.90
10512;DHT22;5304;48.604;2.096;2022-12-18T05:02:52;-4.80;99.90
10512;DHT22;5304;48.604;2.096;2022-12-18T05:05:37;-4.70;99.90
10512;DHT22;5304;48.604;2.096;2022-12-18T05:08:21;-4.80;99.90
10512;DHT22;5304;48.604;2.096;2022-12-18T05:11:08;-4.90;99.90
10512;DHT22;5304;48.604;2.096;2022-12-18T05:13:53;-4.90;99.90
10512;DHT22;5304;48.604;2.096;2022-12-18T05:16:38;-4.90;99.90
10512;DHT22;5304;48.604;2.096;2022-12-18T05:19:22;-4.70;99.90
10512;DHT22;5304;48.604;2.096;2022-12-18T05:22:06;-4.70;99.90
10512;DHT22;5304;48.604;2.096;2022-12-18T05:24:51;-4.80;99.90
10512;DHT22;5304;48.604;2.096;2022-12-18T05:27:35;-4.70;99.90
10512;DHT22;5304;48.604;2.096;2022-12-18T05:30:20;-4.80;99.90
10512;DHT22;5304;48.604;2.096;2022-12-18T05:33:04;-4.80;99.90
10512;DHT22;5304;48.604;2.096;2022-12-18T05:35:57;-4.80;99.90
10512;DHT22;5304;48.604;2.096;2022-12-18T05:38:41;-4.80;99.90
10512;DHT22;5304;48.604;2.096;2022-12-18T05:41:27;-4.90;99.90
10512;DHT22;5304;48.604;2.096;2022-12-18T05:44:11;-4.90;99.90
10512;DHT22;5304;48.604;2.096;2022-12-18T05:46:55;-5.00;99.90
10512;DHT22;5304;48.604;2.096;2022-12-18T05:49:40;-5.00;99.90
10512;DHT22;5304;48.604;2.096;2022-12-18T05:52:24;-5.00;99.90
10512;DHT22;5304;48.604;2.096;2022-12-18T05:55:09;-5.10;99.90
10512;DHT22;5304;48.604;2.096;2022-12-18T05:57:53;-4.90;99.90
10512;DHT22;5304;48.604;2.096;2022-12-18T06:00:39;-4.90;99.90
10512;DHT22;5304;48.604;2.096;2022-12-18T06:03:24;-4.80;99.90
10512;DHT22;5304;48.604;2.096;2022-12-18T06:06:26;-4.80;99.90
10512;DHT22;5304;48.604;2.096;2022-12-18T06:09:11;-4.80;99.90
10512;DHT22;5304;48.604;2.096;2022-12-18T06:11:56;-4.70;99.90
10512;DHT22;5304;48.604;2.096;2022-12-18T06:14:40;-4.70;99.90
10512;DHT22;5304;48.604;2.096;2022-12-18T06:17:30;-4.70;99.90
10512;DHT22;5304;48.604;2.096;2022-12-18T06:20:15;-4.60;99.90
10512;DHT22;5304;48.604;2.096;2022-12-18T06:23:00;-4.60;99.90
10512;DHT22;5304;48.604;2.096;2022-12-18T06:25:44;-4.60;99.90
10512;DHT22;5304;48.604;2.096;2022-12-18T06:28:28;-4.60;99.90
10512;DHT22;5304;48.604;2.096;2022-12-18T06:31:13;-4.70;99.90
10512;DHT22;5304;48.604;2.096;2022-12-18T06:33:57;-4.70;99.90
10512;DHT22;5304;48.604;2.096;2022-12-18T06:36:44;-4.70;99.90
10512;DHT22;5304;48.604;2.096;2022-12-18T06:39:29;-4.70;99.90
10512;DHT22;5304;48.604;2.096;2022-12-18T06:42:14;-4.70;99.90
10512;DHT22;5304;48.604;2.096;2022-12-18T06:45:00;-4.70;99.90
10512;DHT22;5304;48.604;2.096;2022-12-18T06:47:44;-4.70;99.90
10512;DHT22;5304;48.604;2.096;2022-12-18T06:50:28;-4.80;99.90
10512;DHT22;5304;48.604;2.096;2022-12-18T06:53:13;-4.90;99.90
10512;DHT22;5304;48.604;2.096;2022-12-18T06:56:04;-4.80;99.90
10512;DHT22;5304;48.604;2.096;2022-12-18T06:58:49;-4.80;99.90
10512;DHT22;5304;48.604;2.096;2022-12-18T07:01:33;-4.80;99.90
10512;DHT22;5304;48.604;2.096;2022-12-18T07:04:18;-4.80;99.90
10512;DHT22;5304;48.604;2.096;2022-12-18T07:07:02;-4.80;99.90
10512;DHT22;5304;48.604;2.096;2022-12-18T07:09:48;-4.90;99.90
10512;DHT22;5304;48.604;2.096;2022-12-18T07:12:33;-4.90;99.90
10512;DHT22;5304;48.604;2.096;2022-12-18T07:15:17;-5.00;99.90
10512;DHT22;5304;48.604;2.096;2022-12-18T07:18:02;-5.00;99.90
10512;DHT22;5304;48.604;2.096;2022-12-18T07:20:46;-5.00;99.90
10512;DHT22;5304;48.604;2.096;2022-12-18T07:23:32;-4.90;99.90
10512;DHT22;5304;48.604;2.096;2022-12-18T07:26:18;-4.80;99.90
10512;DHT22;5304;48.604;2.096;2022-12-18T07:29:03;-4.80;99.90
10512;DHT22;5304;48.604;2.096;2022-12-18T07:31:48;-4.80;99.90
10512;DHT22;5304;48.604;2.096;2022-12-18T07:34:33;-4.90;99.90
10512;DHT22;5304;48.604;2.096;2022-12-18T07:37:18;-4.80;99.90
10512;DHT22;5304;48.604;2.096;2022-12-18T07:40:02;-4.80;99.90
10512;DHT22;5304;48.604;2.096;2022-12-18T07:42:47;-4.80;99.90
10512;DHT22;5304;48.604;2.096;2022-12-18T07:45:31;-4.80;99.90
10512;DHT22;5304;48.604;2.096;2022-12-18T07:48:16;-4.80;99.90
10512;DHT22;5304;48.604;2.096;2022-12-18T07:51:02;-4.80;99.90
10512;DHT22;5304;48.604;2.096;2022-12-18T07:53:48;-4.80;99.90
10512;DHT22;5304;48.604;2.096;2022-12-18T07:56:32;-4.80;99.90
10512;DHT22;5304;48.604;2.096;2022-12-18T07:59:18;-4.80;99.90
10512;DHT22;5304;48.604;2.096;2022-12-18T08:02:02;-4.80;99.90
10512;DHT22;5304;48.604;2.096;2022-12-18T08:04:47;-4.70;99.90
10512;DHT22;5304;48.604;2.096;2022-12-18T08:07:31;-4.70;99.90
10512;DHT22;5304;48.604;2.096;2022-12-18T08:10:16;-4.60;99.90
10512;DHT22;5304;48.604;2.096;2022-12-18T08:13:00;-4.50;99.90
10512;DHT22;5304;48.604;2.096;2022-12-18T08:15:44;-4.40;99.90
10512;DHT22;5304;48.604;2.096;2022-12-18T08:18:29;-4.40;99.90
10512;DHT22;5304;48.604;2.096;2022-12-18T08:21:16;-4.40;99.90
10512;DHT22;5304;48.604;2.096;2022-12-18T08:24:01;-4.40;99.90
10512;DHT22;5304;48.604;2.096;2022-12-18T08:26:46;-4.40;99.90
10512;DHT22;5304;48.604;2.096;2022-12-18T08:29:32;-4.20;99.90
10512;DHT22;5304;48.604;2.096;2022-12-18T08:32:16;-4.20;99.90
10512;DHT22;5304;48.604;2.096;2022-12-18T08:35:00;-4.10;99.90
10512;DHT22;5304;48.604;2.096;2022-12-18T08:37:45;-4.10;99.90
10512;DHT22;5304;48.604;2.096;2022-12-18T08:40:29;-4.10;99.90
10512;DHT22;5304;48.604;2.096;2022-12-18T08:43:13;-3.90;99.90
10512;DHT22;5304;48.604;2.096;2022-12-18T08:46:21;-3.90;99.90
10512;DHT22;5304;48.604;2.096;2022-12-18T08:49:08;-3.80;99.90
10512;DHT22;5304;48.604;2.096;2022-12-18T08:51:54;-3.80;99.90
10512;DHT22;5304;48.604;2.096;2022-12-18T08:54:39;-3.80;99.90
10512;DHT22;5304;48.604;2.096;2022-12-18T08:57:23;-3.80;99.90
10512;DHT22;5304;48.604;2.096;2022-12-18T09:00:08;-3.70;99.90
10512;DHT22;5304;48.604;2.096;2022-12-18T09:02:53;-3.60;99.90
10512;DHT22;5304;48.604;2.096;2022-12-18T09:05:37;-3.50;99.90
10512;DHT22;5304;48.604;2.096;2022-12-18T09:08:22;-3.40;99.90
10512;DHT22;5304;48.604;2.096;2022-12-18T09:11:13;-3.30;99.90
10512;DHT22;5304;48.604;2.096;2022-12-18T09:13:59;-3.20;99.90
10512;DHT22;5304;48.604;2.096;2022-12-18T09:16:44;-3.20;99.90
10512;DHT22;5304;48.604;2.096;2022-12-18T09:19:28;-3.30;99.90
10512;DHT22;5304;48.604;2.096;2022-12-18T09:22:13;-3.30;99.90
10512;DHT22;5304;48.604;2.096;2022-12-18T09:24:57;-3.20;99.90
10512;DHT22;5304;48.604;2.096;2022-12-18T09:27:42;-3.10;99.90
10512;DHT22;5304;48.604;2.096;2022-12-18T09:30:26;-3.00;99.90
10512;DHT22;5304;48.604;2.096;2022-12-18T09:33:11;-3.00;99.90
10512;DHT22;5304;48.604;2.096;2022-12-18T09:35:56;-3.00;99.90
10512;DHT22;5304;48.604;2.096;2022-12-18T09:38:41;-2.90;99.90
10512;DHT22;5304;48.604;2.096;2022-12-18T09:41:40;-2.90;99.90
10512;DHT22;5304;48.604;2.096;2022-12-18T09:44:35;-2.90;99.90
10512;DHT22;5304;48.604;2.096;2022-12-18T09:47:34;-2.80;99.90
10512;DHT22;5304;48.604;2.096;2022-12-18T09:50:40;-2.70;99.90
10512;DHT22;5304;48.604;2.096;2022-12-18T09:53:28;-2.70;99.90
10512;DHT22;5304;48.604;2.096;2022-12-18T09:56:18;-2.70;99.90
10512;DHT22;5304;48.604;2.096;2022-12-18T09:59:18;-2.60;99.90
10512;DHT22;5304;48.604;2.096;2022-12-18T10:02:17;-2.40;99.90
10512;DHT22;5304;48.604;2.096;2022-12-18T10:05:09;-2.40;99.90
10512;DHT22;5304;48.604;2.096;2022-12-18T10:11:40;-2.30;99.90
10512;DHT22;5304;48.604;2.096;2022-12-18T10:17:44;-2.10;99.90
10512;DHT22;5304;48.604;2.096;2022-12-18T10:20:45;-2.10;99.90
10512;DHT22;5304;48.604;2.096;2022-12-18T10:26:37;-1.80;99.90
10512;DHT22;5304;48.604;2.096;2022-12-18T10:29:24;-1.80;99.90
10512;DHT22;5304;48.604;2.096;2022-12-18T10:32:32;-1.70;99.90
10512;DHT22;5304;48.604;2.096;2022-12-18T10:35:25;-1.60;99.90
10512;DHT22;5304;48.604;2.096;2022-12-18T10:44:16;-1.40;99.90
10512;DHT22;5304;48.604;2.096;2022-12-18T10:47:09;-1.40;99.90
10512;DHT22;5304;48.604;2.096;2022-12-18T10:49:55;-1.40;99.90
10512;DHT22;5304;48.604;2.096;2022-12-18T10:52:39;-1.30;99.90
10512;DHT22;5304;48.604;2.096;2022-12-18T10:55:29;-1.30;99.90
10512;DHT22;5304;48.604;2.096;2022-12-18T10:58:25;-1.30;99.90
10512;DHT22;5304;48.604;2.096;2022-12-18T11:01:11;-1.20;99.90
10512;DHT22;5304;48.604;2.096;2022-12-18T11:06:54;-1.10;99.90
10512;DHT22;5304;48.604;2.096;2022-12-18T11:09:40;-1.10;99.90
10512;DHT22;5304;48.604;2.096;2022-12-18T11:12:25;-1.00;99.90
10512;DHT22;5304;48.604;2.096;2022-12-18T11:15:20;-1.00;99.90
10512;DHT22;5304;48.604;2.096;2022-12-18T11:18:13;-1.10;99.90
10512;DHT22;5304;48.604;2.096;2022-12-18T11:21:08;-1.00;99.90
10512;DHT22;5304;48.604;2.096;2022-12-18T11:23:53;-0.90;99.90
10512;DHT22;5304;48.604;2.096;2022-12-18T11:26:38;-0.80;99.90
10512;DHT22;5304;48.604;2.096;2022-12-18T11:29:32;-0.80;99.90
10512;DHT22;5304;48.604;2.096;2022-12-18T11:32:39;-0.80;99.90
10512;DHT22;5304;48.604;2.096;2022-12-18T11:35:56;-0.80;99.90
10512;DHT22;5304;48.604;2.096;2022-12-18T11:38:45;-0.70;99.90
10512;DHT22;5304;48.604;2.096;2022-12-18T11:41:41;-0.80;99.90
10512;DHT22;5304;48.604;2.096;2022-12-18T11:45:28;-0.70;99.90
10512;DHT22;5304;48.604;2.096;2022-12-18T11:48:16;-0.70;99.90
10512;DHT22;5304;48.604;2.096;2022-12-18T11:51:03;-0.60;99.90
10512;DHT22;5304;48.604;2.096;2022-12-18T11:53:49;-0.60;99.90
10512;DHT22;5304;48.604;2.096;2022-12-18T11:56:36;-0.70;99.90
10512;DHT22;5304;48.604;2.096;2022-12-18T12:06:41;-0.30;99.90
10512;DHT22;5304;48.604;2.096;2022-12-18T12:09:27;-0.20;99.90
10512;DHT22;5304;48.604;2.096;2022-12-18T12:12:40;-0.20;99.90
10512;DHT22;5304;48.604;2.096;2022-12-18T12:15:58;-0.10;99.90
10512;DHT22;5304;48.604;2.096;2022-12-18T12:19:10;-0.10;99.90
10512;DHT22;5304;48.604;2.096;2022-12-18T12:22:07;-0.10;99.90
10512;DHT22;5304;48.604;2.096;2022-12-18T12:25:03;0.10;99.90
10512;DHT22;5304;48.604;2.096;2022-12-18T12:40:18;0.40;99.90
10512;DHT22;5304;48.604;2.096;2022-12-18T12:46:13;0.40;99.90
10512;DHT22;5304;48.604;2.096;2022-12-18T12:49:02;0.30;99.90
10512;DHT22;5304;48.604;2.096;2022-12-18T12:52:06;0.30;99.90
10512;DHT22;5304;48.604;2.096;2022-12-18T12:54:52;0.40;99.90
10512;DHT22;5304;48.604;2.096;2022-12-18T12:57:40;0.50;99.90
10512;DHT22;5304;48.604;2.096;2022-12-18T13:00:30;0.50;99.90
10512;DHT22;5304;48.604;2.096;2022-12-18T13:03:36;0.60;99.90
10512;DHT22;5304;48.604;2.096;2022-12-18T13:06:40;0.60;99.90
10512;DHT22;5304;48.604;2.096;2022-12-18T13:09:33;0.50;99.90
10512;DHT22;5304;48.604;2.096;2022-12-18T13:12:18;0.60;99.90
10512;DHT22;5304;48.604;2.096;2022-12-18T13:15:37;0.60;99.90
10512;DHT22;5304;48.604;2.096;2022-12-18T13:18:24;0.60;99.90
10512;DHT22;5304;48.604;2.096;2022-12-18T13:21:29;0.60;99.90
10512;DHT22;5304;48.604;2.096;2022-12-18T13:24:23;0.70;99.90
10512;DHT22;5304;48.604;2.096;2022-12-18T13:33:36;0.70;99.90
10512;DHT22;5304;48.604;2.096;2022-12-18T13:36:32;0.70;99.90
10512;DHT22;5304;48.604;2.096;2022-12-18T13:39:21;0.80;99.90
10512;DHT22;5304;48.604;2.096;2022-12-18T13:44:52;0.80;99.90
10512;DHT22;5304;48.604;2.096;2022-12-18T13:47:37;0.80;99.90
10512;DHT22;5304;48.604;2.096;2022-12-18T13:50:25;0.90;99.90
10512;DHT22;5304;48.604;2.096;2022-12-18T13:53:21;0.80;99.90
10512;DHT22;5304;48.604;2.096;2022-12-18T13:56:07;0.80;99.90
10512;DHT22;5304;48.604;2.096;2022-12-18T13:59:24;0.90;99.90
10512;DHT22;5304;48.604;2.096;2022-12-18T14:02:24;1.00;99.90
10512;DHT22;5304;48.604;2.096;2022-12-18T14:05:39;1.00;99.90
10512;DHT22;5304;48.604;2.096;2022-12-18T14:08:30;1.00;99.90
10512;DHT22;5304;48.604;2.096;2022-12-18T14:11:22;1.10;99.90
10512;DHT22;5304;48.604;2.096;2022-12-18T14:14:07;1.10;99.90
10512;DHT22;5304;48.604;2.096;2022-12-18T14:16:52;1.10;99.90
10512;DHT22;5304;48.604;2.096;2022-12-18T14:19:40;1.10;99.90
10512;DHT22;5304;48.604;2.096;2022-12-18T14:22:26;1.10;99.90
10512;DHT22;5304;48.604;2.096;2022-12-18T14:25:22;1.10;99.90
10512;DHT22;5304;48.604;2.096;2022-12-18T14:30:53;1.10;99.90
10512;DHT22;5304;48.604;2.096;2022-12-18T14:33:39;1.20;99.90
10512;DHT22;5304;48.604;2.096;2022-12-18T14:36:25;1.20;99.90
10512;DHT22;5304;48.604;2.096;2022-12-18T14:39:16;1.20;99.90
10512;DHT22;5304;48.604;2.096;2022-12-18T14:42:01;1.20;99.90
10512;DHT22;5304;48.604;2.096;2022-12-18T14:44:46;1.30;99.90
10512;DHT22;5304;48.604;2.096;2022-12-18T14:47:31;1.30;99.90
10512;DHT22;5304;48.604;2.096;2022-12-18T14:50:15;1.40;99.90
10512;DHT22;5304;48.604;2.096;2022-12-18T14:53:00;1.40;99.90
10512;DHT22;5304;48.604;2.096;2022-12-18T14:55:48;1.40;99.90
10512;DHT22;5304;48.604;2.096;2022-12-18T14:58:33;1.40;99.90
10512;DHT22;5304;48.604;2.096;2022-12-18T15:01:24;1.40;99.90
10512;DHT22;5304;48.604;2.096;2022-12-18T15:04:33;1.50;99.90
10512;DHT22;5304;48.604;2.096;2022-12-18T15:07:21;1.50;99.90
10512;DHT22;5304;48.604;2.096;2022-12-18T15:10:21;1.40;99.90
10512;DHT22;5304;48.604;2.096;2022-12-18T15:13:09;1.50;99.90
10512;DHT22;5304;48.604;2.096;2022-12-18T15:16:01;1.50;99.90
10512;DHT22;5304;48.604;2.096;2022-12-18T15:18:47;1.50;99.90
10512;DHT22;5304;48.604;2.096;2022-12-18T15:21:32;1.50;99.90
10512;DHT22;5304;48.604;2.096;2022-12-18T15:24:30;1.50;99.90
10512;DHT22;5304;48.604;2.096;2022-12-18T15:27:32;1.50;99.90
10512;DHT22;5304;48.604;2.096;2022-12-18T15:30:22;1.50;99.90
10512;DHT22;5304;48.604;2.096;2022-12-18T15:33:27;1.50;99.90
10512;DHT22;5304;48.604;2.096;2022-12-18T15:36:15;1.50;99.90
10512;DHT22;5304;48.604;2.096;2022-12-18T15:39:00;1.50;99.90
10512;DHT22;5304;48.604;2.096;2022-12-18T15:41:45;1.50;99.90
10512;DHT22;5304;48.604;2.096;2022-12-18T15:44:49;1.50;99.90
10512;DHT22;5304;48.604;2.096;2022-12-18T15:47:34;1.50;99.90
10512;DHT22;5304;48.604;2.096;2022-12-18T15:50:19;1.50;99.90
10512;DHT22;5304;48.604;2.096;2022-12-18T15:53:03;1.40;99.90
10512;DHT22;5304;48.604;2.096;2022-12-18T15:55:47;1.40;99.90
10512;DHT22;5304;48.604;2.096;2022-12-18T15:58:51;1.50;99.90
10512;DHT22;5304;48.604;2.096;2022-12-18T16:01:35;1.50;99.90
10512;DHT22;5304;48.604;2.096;2022-12-18T16:04:21;1.50;99.90
10512;DHT22;5304;48.604;2.096;2022-12-18T16:07:07;1.50;99.90
10512;DHT22;5304;48.604;2.096;2022-12-18T16:09:51;1.50;99.90
10512;DHT22;5304;48.604;2.096;2022-12-18T16:12:36;1.40;99.90
10512;DHT22;5304;48.604;2.096;2022-12-18T16:15:21;1.40;99.90
10512;DHT22;5304;48.604;2.096;2022-12-18T16:18:05;1.40;99.90
10512;DHT22;5304;48.604;2.096;2022-12-18T16:20:49;1.40;99.90
10512;DHT22;5304;48.604;2.096;2022-12-18T16:23:34;1.40;99.90
10512;DHT22;5304;48.604;2.096;2022-12-18T16:26:19;1.40;99.90
10512;DHT22;5304;48.604;2.096;2022-12-18T16:29:03;1.40;99.90
10512;DHT22;5304;48.604;2.096;2022-12-18T16:31:48;1.40;99.90
10512;DHT22;5304;48.604;2.096;2022-12-18T16:34:33;1.50;99.90
10512;DHT22;5304;48.604;2.096;2022-12-18T16:37:18;1.50;99.90
10512;DHT22;5304;48.604;2.096;2022-12-18T16:40:03;1.50;99.90
10512;DHT22;5304;48.604;2.096;2022-12-18T16:42:48;1.50;99.90
10512;DHT22;5304;48.604;2.096;2022-12-18T16:45:32;1.50;99.90
10512;DHT22;5304;48.604;2.096;2022-12-18T16:48:17;1.50;99.90
10512;DHT22;5304;48.604;2.096;2022-12-18T16:51:03;1.50;99.90
10512;DHT22;5304;48.604;2.096;2022-12-18T16:53:48;1.50;99.90
10512;DHT22;5304;48.604;2.096;2022-12-18T16:56:33;1.50;99.90
10512;DHT22;5304;48.604;2.096;2022-12-18T16:59:18;1.60;99.90
10512;DHT22;5304;48.604;2.096;2022-12-18T17:02:04;1.60;99.90
10512;DHT22;5304;48.604;2.096;2022-12-18T17:04:49;1.50;99.90
10512;DHT22;5304;48.604;2.096;2022-12-18T17:07:36;1.60;99.90
10512;DHT22;5304;48.604;2.096;2022-12-18T17:10:20;1.60;99.90
10512;DHT22;5304;48.604;2.096;2022-12-18T17:13:05;1.70;99.90
10512;DHT22;5304;48.604;2.096;2022-12-18T17:15:49;1.80;99.90
10512;DHT22;5304;48.604;2.096;2022-12-18T17:18:34;1.70;99.90
10512;DHT22;5304;48.604;2.096;2022-12-18T17:21:19;1.80;99.90
10512;DHT22;5304;48.604;2.096;2022-12-18T17:24:04;1.90;99.90
10512;DHT22;5304;48.604;2.096;2022-12-18T17:26:48;2.00;99.90
10512;DHT22;5304;48.604;2.096;2022-12-18T17:29:33;2.00;99.90
10512;DHT22;5304;48.604;2.096;2022-12-18T17:32:17;1.90;99.90
10512;DHT22;5304;48.604;2.096;2022-12-18T17:35:02;1.90;99.90
10512;DHT22;5304;48.604;2.096;2022-12-18T17:37:47;2.00;99.90
10512;DHT22;5304;48.604;2.096;2022-12-18T17:40:32;1.90;99.90
10512;DHT22;5304;48.604;2.096;2022-12-18T17:43:16;2.00;99.90
10512;DHT22;5304;48.604;2.096;2022-12-18T17:46:02;2.10;99.90
10512;DHT22;5304;48.604;2.096;2022-12-18T17:48:47;2.10;99.90
10512;DHT22;5304;48.604;2.096;2022-12-18T17:51:31;2.20;99.90
10512;DHT22;5304;48.604;2.096;2022-12-18T17:54:16;2.20;99.90
10512;DHT22;5304;48.604;2.096;2022-12-18T17:57:01;2.20;99.90
10512;DHT22;5304;48.604;2.096;2022-12-18T17:59:45;2.20;99.90
10512;DHT22;5304;48.604;2.096;2022-12-18T18:02:31;2.40;99.90
10512;DHT22;5304;48.604;2.096;2022-12-18T18:05:15;2.40;99.90
10512;DHT22;5304;48.604;2.096;2022-12-18T18:08:00;2.40;99.90
10512;DHT22;5304;48.604;2.096;2022-12-18T18:10:44;2.50;99.90
10512;DHT22;5304;48.604;2.096;2022-12-18T18:13:32;2.60;99.90
10512;DHT22;5304;48.604;2.096;2022-12-18T18:16:43;2.60;99.90
10512;DHT22;5304;48.604;2.096;2022-12-18T18:19:29;2.60;99.90
10512;DHT22;5304;48.604;2.096;2022-12-18T18:22:13;2.60;99.90
10512;DHT22;5304;48.604;2.096;2022-12-18T18:24:58;2.60;99.90
10512;DHT22;5304;48.604;2.096;2022-12-18T18:27:42;2.60;99.90
10512;DHT22;5304;48.604;2.096;2022-12-18T18:30:27;2.60;99.90
10512;DHT22;5304;48.604;2.096;2022-12-18T18:33:11;2.70;99.90
10512;DHT22;5304;48.604;2.096;2022-12-18T18:35:55;2.70;99.90
10512;DHT22;5304;48.604;2.096;2022-12-18T18:38:40;2.70;99.90
10512;DHT22;5304;48.604;2.096;2022-12-18T18:41:24;2.70;99.90
10512;DHT22;5304;48.604;2.096;2022-12-18T18:44:10;2.70;99.90
10512;DHT22;5304;48.604;2.096;2022-12-18T18:46:55;2.70;99.90
10512;DHT22;5304;48.604;2.096;2022-12-18T18:49:40;2.80;99.90
10512;DHT22;5304;48.604;2.096;2022-12-18T18:52:25;2.80;99.90
10512;DHT22;5304;48.604;2.096;2022-12-18T18:55:09;2.70;99.90
10512;DHT22;5304;48.604;2.096;2022-12-18T18:57:54;2.80;99.90
10512;DHT22;5304;48.604;2.096;2022-12-18T19:00:38;2.80;99.90
10512;DHT22;5304;48.604;2.096;2022-12-18T19:03:23;2.90;99.90
10512;DHT22;5304;48.604;2.096;2022-12-18T19:06:14;2.80;99.90
10512;DHT22;5304;48.604;2.096;2022-12-18T19:09:00;2.80;99.90
10512;DHT22;5304;48.604;2.096;2022-12-18T19:11:45;2.80;99.90
10512;DHT22;5304;48.604;2.096;2022-12-18T19:14:48;2.80;99.90
10512;DHT22;5304;48.604;2.096;2022-12-18T19:17:33;2.80;99.90
10512;DHT22;5304;48.604;2.096;2022-12-18T19:20:17;2.90;99.90
10512;DHT22;5304;48.604;2.096;2022-12-18T19:23:02;2.80;99.90
10512;DHT22;5304;48.604;2.096;2022-12-18T19:25:47;2.80;99.90